Time;durP1;ratioP1;P1;durP2;ratioP2;P2;SDS_P1;SDS_P2;PMS_P1;PMS_P2;Temp;Humidity;BMP_temperature;BMP_pressure;BME280_temperature;BME280_humidity;BME280_pressure;Samples;Min_cycle;Max_cycle;Signal;HPM_P1;HPM_P2
2022/07/04 00:02:24;;;;;;;6.60;4.50;;;;;;;;;;4999910;28;20378;-81
2022/07/04 00:04:50;;;;;;;6.63;4.13;;;;;;;;;;5020583;28;20022;-82
2022/07/04 00:07:15;;;;;;;4.35;3.95;;;;;;;;;;5005770;28;20025;-79
2022/07/04 00:09:40;;;;;;;6.72;4.07;;;;;;;;;;5023755;28;20025;-83
2022/07/04 00:12:06;;;;;;;4.90;4.03;;;;;;;;;;5021169;28;20021;-80
2022/07/04 00:14:31;;;;;;;5.95;3.58;;;;;;;;;;5004712;28;20041;-82
2022/07/04 00:16:59;;;;;;;8.73;3.85;;;;;;;;;;5023608;28;20049;-82
2022/07/04 00:19:28;;;;;;;6.28;4.03;;;;;;;;;;5016729;28;20033;-82
2022/07/04 00:21:53;;;;;;;7.35;3.50;;;;;;;;;;5004232;28;20468;-79
2022/07/04 00:24:18;;;;;;;7.35;4.20;;;;;;;;;;5021461;28;20021;-79
2022/07/04 00:26:43;;;;;;;7.55;4.95;;;;;;;;;;5021316;28;20029;-81
2022/07/04 00:29:09;;;;;;;7.32;3.92;;;;;;;;;;5023131;28;20093;-79
2022/07/04 00:31:34;;;;;;;6.40;4.30;;;;;;;;;;5024685;28;20055;-82
2022/07/04 00:33:59;;;;;;;5.40;3.60;;;;;;;;;;5024121;28;20033;-80
2022/07/04 00:36:24;;;;;;;8.25;4.53;;;;;;;;;;5003523;28;20033;-82
2022/07/04 00:38:50;;;;;;;7.10;4.32;;;;;;;;;;5021474;28;20029;-78
2022/07/04 00:41:15;;;;;;;12.32;4.20;;;;;;;;;;5020114;28;20116;-82
2022/07/04 00:43:40;;;;;;;7.80;4.28;;;;;;;;;;5022483;28;20049;-79
2022/07/04 00:46:05;;;;;;;5.75;4.32;;;;;;;;;;5003389;28;20119;-81
2022/07/04 00:48:31;;;;;;;8.30;4.78;;;;;;;;;;5021401;28;20018;-80
2022/07/04 00:50:57;;;;;;;4.95;4.15;;;;;;;;;;5020601;28;20035;-83
2022/07/04 00:53:23;;;;;;;5.78;4.43;;;;;;;;;;5002438;28;20112;-79
2022/07/04 00:55:49;;;;;;;8.93;3.83;;;;;;;;;;5020497;28;20029;-80
2022/07/04 00:58:14;;;;;;;7.40;4.80;;;;;;;;;;5017770;28;20477;-82
2022/07/04 01:00:40;;;;;;;5.13;4.32;;;;;;;;;;5005237;28;20036;-79
2022/07/04 01:03:05;;;;;;;7.18;4.43;;;;;;;;;;5022858;28;20054;-79
2022/07/04 01:05:31;;;;;;;5.45;4.28;;;;;;;;;;5002593;28;20753;-79
2022/07/04 01:07:56;;;;;;;4.10;3.65;;;;;;;;;;5002765;28;20439;-82
2022/07/04 01:10:22;;;;;;;6.82;4.18;;;;;;;;;;5024912;28;20076;-79
2022/07/04 01:12:47;;;;;;;5.53;3.97;;;;;;;;;;5000525;28;20036;-79
2022/07/04 01:15:12;;;;;;;6.30;4.07;;;;;;;;;;5023319;28;20025;-82
2022/07/04 01:17:37;;;;;;;7.70;3.92;;;;;;;;;;5005887;28;20473;-79
2022/07/04 01:20:03;;;;;;;7.00;3.63;;;;;;;;;;5019175;28;20111;-80
2022/07/04 01:22:28;;;;;;;5.57;4.45;;;;;;;;;;5019972;28;20037;-79
2022/07/04 01:24:53;;;;;;;5.70;3.45;;;;;;;;;;5023995;28;20059;-82
2022/07/04 01:27:19;;;;;;;8.10;4.32;;;;;;;;;;5023621;28;20099;-82
2022/07/04 01:29:44;;;;;;;4.80;3.50;;;;;;;;;;5021269;28;20227;-79
2022/07/04 01:32:10;;;;;;;4.53;3.83;;;;;;;;;;5005558;28;20673;-82
2022/07/04 01:34:38;;;;;;;7.63;4.70;;;;;;;;;;5016701;28;20040;-81
2022/07/04 01:37:04;;;;;;;5.45;3.55;;;;;;;;;;5024219;28;20166;-79
2022/07/04 01:39:29;;;;;;;4.88;3.70;;;;;;;;;;5022157;28;20033;-79
2022/07/04 01:41:55;;;;;;;8.32;4.25;;;;;;;;;;5019636;28;20120;-79
2022/07/04 01:44:20;;;;;;;6.00;4.10;;;;;;;;;;5001608;28;20121;-80
2022/07/04 01:46:45;;;;;;;5.30;4.40;;;;;;;;;;5003443;28;20063;-82
2022/07/04 01:49:11;;;;;;;4.53;3.42;;;;;;;;;;5023981;28;20049;-79
2022/07/04 01:51:43;;;;;;;4.03;3.63;;;;;;;;;;5018978;28;20459;-79
2022/07/04 01:54:08;;;;;;;6.20;4.07;;;;;;;;;;5021802;28;20091;-81
2022/07/04 01:56:33;;;;;;;5.97;4.15;;;;;;;;;;4999012;28;20033;-83
2022/07/04 01:59:01;;;;;;;6.63;4.35;;;;;;;;;;5000858;28;20507;-81
2022/07/04 02:01:29;;;;;;;8.43;4.45;;;;;;;;;;5020944;28;20041;-82
2022/07/04 02:03:54;;;;;;;6.72;4.57;;;;;;;;;;5019650;28;20041;-81
2022/07/04 02:06:20;;;;;;;7.03;5.05;;;;;;;;;;5016964;28;20022;-82
2022/07/04 02:13:00;;;;;;;11.13;5.60;;;;;;;;;;5020880;28;20041;-82
2022/07/04 02:14:14;;;;;;;6.55;4.53;;;;;;;;;;5020931;28;20034;-79
2022/07/04 02:16:39;;;;;;;6.05;4.20;;;;;;;;;;5019789;28;20021;-78
2022/07/04 02:19:04;;;;;;;5.50;4.38;;;;;;;;;;5025503;28;20037;-80
2022/07/04 02:21:29;;;;;;;8.23;5.50;;;;;;;;;;5017483;28;20388;-80
2022/07/04 02:23:55;;;;;;;9.07;5.50;;;;;;;;;;5002970;28;20389;-83
2022/07/04 02:26:20;;;;;;;8.68;5.38;;;;;;;;;;5019273;28;20436;-83
2022/07/04 02:28:46;;;;;;;7.03;4.70;;;;;;;;;;5020099;28;20024;-79
2022/07/04 02:31:11;;;;;;;6.80;4.93;;;;;;;;;;5001530;28;20029;-82
2022/07/04 02:33:36;;;;;;;10.95;6.65;;;;;;;;;;5017216;28;20074;-82
2022/07/04 02:36:02;;;;;;;9.23;5.55;;;;;;;;;;5020654;28;20040;-81
2022/07/04 02:38:27;;;;;;;10.68;5.28;;;;;;;;;;5022650;28;20017;-83
2022/07/04 02:40:52;;;;;;;10.15;5.70;;;;;;;;;;5021184;28;20497;-80
2022/07/04 02:43:17;;;;;;;7.95;5.50;;;;;;;;;;5005606;28;20084;-81
2022/07/04 02:45:43;;;;;;;8.32;5.57;;;;;;;;;;5022545;28;20038;-82
2022/07/04 02:48:08;;;;;;;7.80;5.90;;;;;;;;;;5002591;28;20120;-83
2022/07/04 02:50:33;;;;;;;10.20;5.45;;;;;;;;;;5019688;28;20059;-83
2022/07/04 02:52:58;;;;;;;6.78;6.05;;;;;;;;;;5019672;28;20129;-83
2022/07/04 02:55:26;;;;;;;7.22;5.20;;;;;;;;;;5020566;28;20051;-79
2022/07/04 02:57:52;;;;;;;9.77;5.13;;;;;;;;;;5018925;28;20029;-81
2022/07/04 03:00:17;;;;;;;7.70;5.50;;;;;;;;;;5016207;28;20040;-79
2022/07/04 03:02:42;;;;;;;7.53;4.90;;;;;;;;;;5019399;28;20038;-79
2022/07/04 03:05:08;;;;;;;8.32;5.35;;;;;;;;;;5004350;28;20052;-82
2022/07/04 03:07:33;;;;;;;9.38;6.18;;;;;;;;;;5025854;28;20469;-79
2022/07/04 03:09:58;;;;;;;8.98;6.07;;;;;;;;;;5028821;28;20026;-81
2022/07/04 03:12:23;;;;;;;6.88;5.30;;;;;;;;;;5031781;28;20068;-79
2022/07/04 03:14:48;;;;;;;9.07;5.55;;;;;;;;;;5006987;28;20115;-82
2022/07/04 03:17:14;;;;;;;10.13;6.22;;;;;;;;;;5012628;28;20016;-83
2022/07/04 03:19:39;;;;;;;8.45;5.28;;;;;;;;;;5028506;28;20033;-83
2022/07/04 03:22:04;;;;;;;9.95;7.03;;;;;;;;;;5026145;28;20116;-82
2022/07/04 03:24:29;;;;;;;6.85;5.43;;;;;;;;;;5018523;28;20068;-80
2022/07/04 03:26:55;;;;;;;14.70;5.78;;;;;;;;;;5024878;28;20061;-80
2022/07/04 03:29:25;;;;;;;9.20;5.13;;;;;;;;;;5005881;28;20052;-79
2022/07/04 03:31:50;;;;;;;7.18;4.78;;;;;;;;;;5022834;28;20021;-79
2022/07/04 03:34:16;;;;;;;6.18;4.70;;;;;;;;;;5006519;28;20480;-80
2022/07/04 03:36:41;;;;;;;9.50;5.18;;;;;;;;;;5022457;28;20181;-79
2022/07/04 03:39:07;;;;;;;6.72;5.10;;;;;;;;;;5025626;28;20124;-82
2022/07/04 03:41:32;;;;;;;9.30;5.47;;;;;;;;;;5020141;28;20056;-79
2022/07/04 03:43:58;;;;;;;10.43;5.30;;;;;;;;;;5023535;28;20025;-79
2022/07/04 03:46:23;;;;;;;6.97;4.63;;;;;;;;;;5022628;28;20116;-79
2022/07/04 03:48:48;;;;;;;8.25;5.18;;;;;;;;;;5008217;28;20675;-81
2022/07/04 03:51:14;;;;;;;7.97;4.93;;;;;;;;;;5021764;28;20043;-79
2022/07/04 03:53:39;;;;;;;8.75;4.65;;;;;;;;;;5005599;28;20384;-82
2022/07/04 03:56:04;;;;;;;8.60;5.15;;;;;;;;;;5006671;28;20067;-83
2022/07/04 03:58:30;;;;;;;8.45;4.78;;;;;;;;;;5021729;28;21856;-79
2022/07/04 04:00:55;;;;;;;8.70;4.43;;;;;;;;;;5005569;28;20037;-82
2022/07/04 04:06:07;;;;;;;6.18;3.95;;;;;;;;;;5026426;28;20369;-78
2022/07/04 04:08:32;;;;;;;7.80;4.28;;;;;;;;;;5002490;28;20643;-79
2022/07/04 04:10:58;;;;;;;9.60;5.00;;;;;;;;;;5008843;28;20026;-83
2022/07/04 04:13:23;;;;;;;9.82;4.18;;;;;;;;;;5020937;28;20033;-81
2022/07/04 04:15:48;;;;;;;9.02;4.97;;;;;;;;;;5012309;28;20064;-81
2022/07/04 04:18:14;;;;;;;7.03;4.18;;;;;;;;;;5020643;28;20025;-82
2022/07/04 04:20:39;;;;;;;8.05;4.43;;;;;;;;;;5023313;28;20022;-80
2022/07/04 04:23:04;;;;;;;8.27;5.03;;;;;;;;;;5020124;28;20030;-81
2022/07/04 04:25:29;;;;;;;6.43;4.00;;;;;;;;;;5023212;28;20041;-83
2022/07/04 04:27:55;;;;;;;7.15;3.40;;;;;;;;;;5019284;28;20025;-80
2022/07/04 04:30:20;;;;;;;4.38;3.58;;;;;;;;;;5020804;28;20108;-81
2022/07/04 04:32:45;;;;;;;7.32;3.33;;;;;;;;;;5024912;28;20431;-83
2022/07/04 04:35:13;;;;;;;6.53;4.05;;;;;;;;;;5024909;28;20029;-80
2022/07/04 04:37:38;;;;;;;6.28;3.72;;;;;;;;;;5002181;28;20485;-83
2022/07/04 04:40:04;;;;;;;6.07;3.60;;;;;;;;;;5005763;28;20048;-80
2022/07/04 04:42:29;;;;;;;5.20;3.28;;;;;;;;;;5023978;28;20029;-79
2022/07/04 04:44:55;;;;;;;8.68;3.60;;;;;;;;;;5022275;28;20370;-80
2022/07/04 04:47:20;;;;;;;5.35;2.90;;;;;;;;;;5023509;28;20378;-83
2022/07/04 04:49:45;;;;;;;5.63;3.60;;;;;;;;;;5027192;28;20248;-81
2022/07/04 04:52:11;;;;;;;6.15;4.90;;;;;;;;;;5023142;28;20025;-79
2022/07/04 04:54:36;;;;;;;5.75;3.35;;;;;;;;;;5022230;28;20038;-79
2022/07/04 04:57:02;;;;;;;6.78;3.40;;;;;;;;;;5015280;28;20393;-81
2022/07/04 04:59:29;;;;;;;6.72;3.53;;;;;;;;;;5016758;28;20028;-82
2022/07/04 05:01:54;;;;;;;4.90;4.15;;;;;;;;;;5005005;28;20099;-82
2022/07/04 05:04:20;;;;;;;7.03;3.33;;;;;;;;;;4993285;28;20614;-78
2022/07/04 05:06:45;;;;;;;7.30;4.07;;;;;;;;;;5033469;28;20101;-78
2022/07/04 05:09:10;;;;;;;7.22;3.78;;;;;;;;;;5021512;28;20635;-80
2022/07/04 05:11:35;;;;;;;6.45;4.85;;;;;;;;;;5025029;28;20025;-78
2022/07/04 05:14:01;;;;;;;8.55;4.13;;;;;;;;;;5027401;28;20037;-80
2022/07/04 05:16:26;;;;;;;8.20;3.60;;;;;;;;;;5020717;28;20027;-79
2022/07/04 05:18:55;;;;;;;10.93;3.95;;;;;;;;;;5020521;28;20120;-83
2022/07/04 05:21:26;;;;;;;7.10;3.60;;;;;;;;;;5021848;28;20445;-80
2022/07/04 05:23:51;;;;;;;7.97;5.15;;;;;;;;;;5000858;28;20025;-83
2022/07/04 05:26:16;;;;;;;13.38;4.70;;;;;;;;;;5007311;28;20083;-78
2022/07/04 05:28:41;;;;;;;7.85;5.00;;;;;;;;;;5003052;28;20025;-82
2022/07/04 05:31:07;;;;;;;10.57;5.22;;;;;;;;;;4999595;28;20032;-78
2022/07/04 05:33:32;;;;;;;4.20;3.80;;;;;;;;;;4999578;28;20159;-82
2022/07/04 05:36:00;;;;;;;7.93;4.57;;;;;;;;;;5002531;28;20530;-79
2022/07/04 05:38:28;;;;;;;11.65;5.18;;;;;;;;;;5021594;28;20125;-80
2022/07/04 05:40:53;;;;;;;7.28;3.80;;;;;;;;;;5022900;28;20017;-79
2022/07/04 05:43:21;;;;;;;6.32;4.05;;;;;;;;;;5004602;28;20033;-80
2022/07/04 05:45:48;;;;;;;10.15;5.50;;;;;;;;;;5021927;28;20061;-82
2022/07/04 05:48:13;;;;;;;9.55;4.53;;;;;;;;;;5006231;28;20025;-80
2022/07/04 05:50:38;;;;;;;6.57;4.38;;;;;;;;;;5010008;28;20044;-84
2022/07/04 05:53:03;;;;;;;10.02;4.03;;;;;;;;;;5020684;28;20152;-82
2022/07/04 05:55:29;;;;;;;7.15;4.10;;;;;;;;;;5017341;28;20039;-78
2022/07/04 05:57:57;;;;;;;5.65;3.65;;;;;;;;;;4993670;28;20025;-83
2022/07/04 06:00:22;;;;;;;4.32;2.95;;;;;;;;;;5016635;28;20037;-82
2022/07/04 06:02:48;;;;;;;7.03;4.10;;;;;;;;;;5018780;28;20870;-79
2022/07/04 06:05:13;;;;;;;5.93;3.15;;;;;;;;;;5016365;28;20029;-85
2022/07/04 06:07:40;;;;;;;11.98;4.32;;;;;;;;;;5020347;28;20083;-82
2022/07/04 06:10:05;;;;;;;6.20;3.50;;;;;;;;;;4993881;28;20060;-81
2022/07/04 06:12:31;;;;;;;5.53;2.85;;;;;;;;;;5011192;28;20422;-80
2022/07/04 06:14:59;;;;;;;5.85;2.85;;;;;;;;;;5023979;28;20123;-80
2022/07/04 06:17:25;;;;;;;5.13;2.75;;;;;;;;;;5023145;28;20055;-82
2022/07/04 06:19:50;;;;;;;7.07;2.75;;;;;;;;;;5018457;28;20037;-82
2022/07/04 06:22:16;;;;;;;5.00;2.28;;;;;;;;;;4993617;28;20124;-84
2022/07/04 06:24:41;;;;;;;5.85;2.70;;;;;;;;;;5008888;28;20036;-82
2022/07/04 06:27:06;;;;;;;6.53;3.17;;;;;;;;;;5019627;28;20026;-80
2022/07/04 06:29:31;;;;;;;8.52;3.70;;;;;;;;;;5023014;28;20030;-80
2022/07/04 06:31:57;;;;;;;9.45;2.67;;;;;;;;;;5008140;28;20087;-82
2022/07/04 06:37:06;;;;;;;11.27;4.50;;;;;;;;;;5022492;28;20036;-82
2022/07/04 06:39:31;;;;;;;10.35;3.30;;;;;;;;;;5022603;28;20548;-82
2022/07/04 06:41:59;;;;;;;9.80;3.42;;;;;;;;;;5018726;28;20025;-84
2022/07/04 06:44:24;;;;;;;11.98;4.95;;;;;;;;;;5021302;28;20095;-82
2022/07/04 06:46:50;;;;;;;14.80;4.68;;;;;;;;;;5024756;28;20018;-82
2022/07/04 06:49:16;;;;;;;11.98;3.53;;;;;;;;;;5016771;28;20021;-83
2022/07/04 06:51:41;;;;;;;13.05;4.40;;;;;;;;;;5018729;28;20480;-84
2022/07/04 06:54:06;;;;;;;9.15;6.00;;;;;;;;;;5026005;28;20112;-84
2022/07/04 06:56:31;;;;;;;6.95;3.67;;;;;;;;;;4992030;28;20072;-82
2022/07/04 06:58:57;;;;;;;15.55;5.15;;;;;;;;;;5024522;28;20064;-87
2022/07/04 07:01:22;;;;;;;9.97;4.87;;;;;;;;;;5020333;28;20055;-82
2022/07/04 07:03:47;;;;;;;16.80;5.75;;;;;;;;;;5005738;28;20278;-81
2022/07/04 07:06:12;;;;;;;5.90;3.20;;;;;;;;;;5020752;28;20032;-85
2022/07/04 07:08:38;;;;;;;10.10;4.57;;;;;;;;;;5008118;28;20421;-86
2022/07/04 07:11:12;;;;;;;7.82;3.85;;;;;;;;;;5007130;28;20120;-87
2022/07/04 07:13:39;;;;;;;4.88;3.08;;;;;;;;;;5003484;28;20037;-82
2022/07/04 07:16:04;;;;;;;18.38;6.63;;;;;;;;;;5002042;28;20069;-81
2022/07/04 07:18:29;;;;;;;9.82;4.25;;;;;;;;;;5018116;28;20053;-80
2022/07/04 07:20:55;;;;;;;15.18;7.28;;;;;;;;;;4998058;28;20028;-80
2022/07/04 07:23:20;;;;;;;12.70;4.05;;;;;;;;;;5019650;28;20037;-88
2022/07/04 07:25:45;;;;;;;14.38;5.82;;;;;;;;;;5003341;28;20021;-82
2022/07/04 07:28:10;;;;;;;13.00;6.20;;;;;;;;;;5003204;28;20430;-87
2022/07/04 07:30:35;;;;;;;15.07;5.78;;;;;;;;;;5002065;28;20477;-82
2022/07/04 07:33:01;;;;;;;13.70;5.55;;;;;;;;;;5009216;28;20018;-82
2022/07/04 07:35:26;;;;;;;11.40;6.03;;;;;;;;;;5026117;28;20042;-88
2022/07/04 07:37:52;;;;;;;13.98;5.22;;;;;;;;;;5004595;28;20904;-87
2022/07/04 07:40:17;;;;;;;9.70;4.32;;;;;;;;;;5002484;28;20025;-82
2022/07/04 07:42:42;;;;;;;12.70;7.10;;;;;;;;;;5025337;28;20054;-82
2022/07/04 07:45:08;;;;;;;13.23;5.55;;;;;;;;;;5018170;28;20054;-87
2022/07/04 07:47:33;;;;;;;9.82;3.88;;;;;;;;;;5016686;28;20037;-82
2022/07/04 07:49:58;;;;;;;11.98;4.70;;;;;;;;;;5021237;28;20270;-87
2022/07/04 07:52:23;;;;;;;11.40;5.65;;;;;;;;;;5021445;28;20033;-83
2022/07/04 07:54:48;;;;;;;10.50;5.32;;;;;;;;;;5003712;28;20033;-82
2022/07/04 07:57:14;;;;;;;9.50;5.03;;;;;;;;;;5024982;28;20380;-88
2022/07/04 07:59:39;;;;;;;9.38;4.28;;;;;;;;;;5025627;28;20040;-86
2022/07/04 08:02:05;;;;;;;11.27;4.50;;;;;;;;;;5017014;28;20045;-82
2022/07/04 08:04:37;;;;;;;8.43;4.43;;;;;;;;;;5006614;28;20332;-83
2022/07/04 08:07:06;;;;;;;9.30;3.95;;;;;;;;;;5025149;28;20025;-82
2022/07/04 08:09:32;;;;;;;7.70;3.88;;;;;;;;;;5018952;28;20026;-86
2022/07/04 08:11:58;;;;;;;8.32;3.60;;;;;;;;;;5006141;28;20044;-82
2022/07/04 08:14:23;;;;;;;6.70;3.28;;;;;;;;;;5006663;28;20057;-82
2022/07/04 08:16:48;;;;;;;8.35;3.90;;;;;;;;;;5009179;28;20236;-82
2022/07/04 08:19:14;;;;;;;6.90;4.15;;;;;;;;;;5007613;28;20026;-81
2022/07/04 08:21:39;;;;;;;7.93;2.75;;;;;;;;;;5000370;28;20401;-82
2022/07/04 08:24:04;;;;;;;5.90;3.00;;;;;;;;;;5005107;28;20481;-79
2022/07/04 08:26:30;;;;;;;12.15;5.57;;;;;;;;;;5018469;28;20071;-84
2022/07/04 08:28:57;;;;;;;11.38;4.03;;;;;;;;;;5003869;28;20503;-77
2022/07/04 08:31:22;;;;;;;10.93;4.20;;;;;;;;;;5019749;28;20417;-78
2022/07/04 08:33:48;;;;;;;8.68;3.95;;;;;;;;;;5003995;28;20064;-79
2022/07/04 08:36:13;;;;;;;7.63;3.55;;;;;;;;;;4997573;28;20030;-85
2022/07/04 08:38:38;;;;;;;11.85;4.28;;;;;;;;;;5019458;28;20041;-85
2022/07/04 08:41:03;;;;;;;6.85;4.40;;;;;;;;;;5018238;28;20065;-79
2022/07/04 08:43:32;;;;;;;6.72;3.70;;;;;;;;;;5015410;28;20080;-80
2022/07/04 08:45:59;;;;;;;8.77;4.35;;;;;;;;;;5016845;28;20259;-78
2022/07/04 08:48:27;;;;;;;19.63;5.35;;;;;;;;;;5019505;28;20140;-85
2022/07/04 08:50:57;;;;;;;7.82;3.53;;;;;;;;;;5024255;28;20044;-78
2022/07/04 08:53:24;;;;;;;7.25;3.45;;;;;;;;;;5016476;28;20018;-84
2022/07/04 08:58:35;;;;;;;8.25;3.72;;;;;;;;;;5023536;28;20031;-78
2022/07/04 09:01:02;;;;;;;9.73;4.13;;;;;;;;;;5020266;28;20390;-85
2022/07/04 09:03:27;;;;;;;9.68;2.92;;;;;;;;;;5021798;28;20469;-86
2022/07/04 09:05:53;;;;;;;4.97;3.45;;;;;;;;;;5005129;28;20048;-86
2022/07/04 09:08:19;;;;;;;6.25;3.47;;;;;;;;;;5020899;28;20025;-79
2022/07/04 09:10:44;;;;;;;7.47;3.47;;;;;;;;;;5026976;28;20196;-78
2022/07/04 09:13:10;;;;;;;5.50;2.95;;;;;;;;;;5004158;28;20171;-79
2022/07/04 09:15:36;;;;;;;5.57;2.97;;;;;;;;;;5029292;28;20473;-78
2022/07/04 09:18:01;;;;;;;6.20;2.47;;;;;;;;;;5022332;28;20112;-86
2022/07/04 09:20:30;;;;;;;6.05;3.10;;;;;;;;;;5005246;28;20066;-86
2022/07/04 09:22:58;;;;;;;8.55;3.15;;;;;;;;;;5020262;28;20033;-79
2022/07/04 09:25:24;;;;;;;3.65;3.25;;;;;;;;;;5027544;28;20497;-78
2022/07/04 09:27:50;;;;;;;4.35;3.17;;;;;;;;;;5022849;28;20024;-85
2022/07/04 09:30:17;;;;;;;6.07;3.22;;;;;;;;;;5022829;28;20116;-86
2022/07/04 09:32:44;;;;;;;7.07;2.80;;;;;;;;;;5022773;28;20465;-80
2022/07/04 09:35:11;;;;;;;5.80;3.42;;;;;;;;;;5021457;28;20044;-79
2022/07/04 09:37:45;;;;;;;6.78;2.80;;;;;;;;;;5021820;28;20026;-85
2022/07/04 09:40:18;;;;;;;6.70;2.83;;;;;;;;;;5023617;28;20995;-79
2022/07/04 09:42:44;;;;;;;4.95;2.63;;;;;;;;;;5004049;28;20648;-85
2022/07/04 09:45:10;;;;;;;3.97;2.60;;;;;;;;;;4998433;28;20044;-79
2022/07/04 09:47:36;;;;;;;4.43;2.67;;;;;;;;;;5015739;28;20029;-86
2022/07/04 09:50:04;;;;;;;3.90;2.60;;;;;;;;;;5013381;28;21518;-86
2022/07/04 09:52:30;;;;;;;7.35;2.60;;;;;;;;;;5020489;28;20037;-78
2022/07/04 09:55:05;;;;;;;5.65;2.85;;;;;;;;;;5008494;28;20037;-84
2022/07/04 09:57:31;;;;;;;7.03;2.75;;;;;;;;;;5020914;28;20033;-79
2022/07/04 09:59:57;;;;;;;4.68;2.30;;;;;;;;;;5023096;28;20091;-87
2022/07/04 10:02:23;;;;;;;6.18;2.35;;;;;;;;;;5000505;28;20037;-82
2022/07/04 10:04:49;;;;;;;2.95;1.90;;;;;;;;;;5022816;28;20990;-85
2022/07/04 10:07:33;;;;;;;3.58;2.30;;;;;;;;;;5015036;28;20113;-82
2022/07/04 10:09:59;;;;;;;3.80;1.92;;;;;;;;;;5024165;28;20083;-87
2022/07/04 10:12:25;;;;;;;3.72;2.50;;;;;;;;;;5005779;28;20033;-82
2022/07/04 10:14:51;;;;;;;4.18;1.85;;;;;;;;;;5028806;28;20057;-86
2022/07/04 10:17:16;;;;;;;5.00;2.47;;;;;;;;;;5002115;28;20064;-83
2022/07/04 10:19:41;;;;;;;5.15;2.33;;;;;;;;;;5021296;28;20040;-83
2022/07/04 10:22:10;;;;;;;7.57;2.60;;;;;;;;;;5021021;28;20037;-87
2022/07/04 10:24:35;;;;;;;4.97;2.70;;;;;;;;;;5020938;28;20036;-82
2022/07/04 10:27:01;;;;;;;6.00;3.25;;;;;;;;;;5002326;28;20200;-86
2022/07/04 10:29:26;;;;;;;5.22;2.42;;;;;;;;;;5007613;28;20068;-82
2022/07/04 10:31:51;;;;;;;4.13;3.10;;;;;;;;;;5024826;28;20029;-87
2022/07/04 10:34:17;;;;;;;2.42;1.92;;;;;;;;;;5024333;28;20069;-87
2022/07/04 10:36:50;;;;;;;6.50;2.17;;;;;;;;;;5002432;28;20021;-86
2022/07/04 10:39:22;;;;;;;7.80;2.22;;;;;;;;;;5019488;28;20063;-83
2022/07/04 10:41:58;;;;;;;2.17;1.67;;;;;;;;;;5015125;28;20481;-83
2022/07/04 10:44:25;;;;;;;7.82;3.10;;;;;;;;;;5022024;28;20029;-85
2022/07/04 10:46:51;;;;;;;3.88;2.03;;;;;;;;;;5021898;28;20037;-83
2022/07/04 10:49:18;;;;;;;4.15;3.45;;;;;;;;;;5003704;28;20067;-83
2022/07/04 10:52:02;;;;;;;2.65;1.75;;;;;;;;;;5003461;28;20560;-86
2022/07/04 10:54:31;;;;;;;3.00;1.80;;;;;;;;;;5019882;28;20033;-88
2022/07/04 10:56:57;;;;;;;3.60;2.60;;;;;;;;;;5021539;28;20040;-87
2022/07/04 10:59:22;;;;;;;2.53;2.33;;;;;;;;;;5022598;28;20037;-83
2022/07/04 11:01:52;;;;;;;2.20;2.00;;;;;;;;;;5016404;28;20052;-86
2022/07/04 11:04:36;;;;;;;3.03;2.00;;;;;;;;;;5000994;28;20040;-87
2022/07/04 11:07:02;;;;;;;4.63;2.03;;;;;;;;;;5003681;28;20038;-82
2022/07/04 11:09:30;;;;;;;5.32;2.33;;;;;;;;;;5005666;28;20025;-82
2022/07/04 11:12:14;;;;;;;2.88;2.05;;;;;;;;;;5020827;28;20025;-87
2022/07/04 11:14:46;;;;;;;2.17;1.70;;;;;;;;;;5015523;28;20040;-83
2022/07/04 11:17:12;;;;;;;;;;;;;;;;;;5015195;28;20040;-83
2022/07/04 11:19:37;;;;;;;5.35;1.50;;;;;;;;;;5019197;28;19920;-85
2022/07/04 11:22:04;;;;;;;4.20;2.10;;;;;;;;;;5004949;28;20171;-87
2022/07/04 11:24:30;;;;;;;4.25;1.63;;;;;;;;;;5015625;28;20018;-83
2022/07/04 11:26:55;;;;;;;2.90;1.70;;;;;;;;;;4997497;28;20037;-86
2022/07/04 11:29:21;;;;;;;1.67;1.48;;;;;;;;;;5003719;28;20405;-83
2022/07/04 11:31:47;;;;;;;4.07;1.80;;;;;;;;;;5024076;28;21148;-87
2022/07/04 11:34:16;;;;;;;2.72;1.80;;;;;;;;;;5022405;28;20042;-86
2022/07/04 11:36:42;;;;;;;5.70;1.85;;;;;;;;;;5018039;28;20039;-87
2022/07/04 11:39:08;;;;;;;2.20;1.58;;;;;;;;;;5022628;28;20059;-83
2022/07/04 11:47:12;;;;;;;2.67;1.60;;;;;;;;;;5023196;28;20037;-83
2022/07/04 11:49:42;;;;;;;7.40;1.98;;;;;;;;;;5024279;28;20665;-84
2022/07/04 11:52:07;;;;;;;5.18;1.83;;;;;;;;;;5008294;28;20024;-86
2022/07/04 11:54:33;;;;;;;4.22;1.80;;;;;;;;;;5014212;28;20034;-82
2022/07/04 11:57:08;;;;;;;2.97;1.75;;;;;;;;;;5029673;28;20579;-82
2022/07/04 11:59:33;;;;;;;3.35;1.60;;;;;;;;;;5022417;28;20390;-86
2022/07/04 12:02:12;;;;;;;3.25;1.60;;;;;;;;;;5029098;28;20033;-81
2022/07/04 12:04:41;;;;;;;4.30;1.52;;;;;;;;;;5004741;28;20057;-82
2022/07/04 12:07:26;;;;;;;4.47;1.77;;;;;;;;;;5004794;28;20030;-84
2022/07/04 12:09:55;;;;;;;4.95;1.67;;;;;;;;;;5019200;28;20030;-84
2022/07/04 12:12:21;;;;;;;5.18;3.28;;;;;;;;;;4996253;28;20055;-84
2022/07/04 12:15:03;;;;;;;2.65;1.77;;;;;;;;;;5001332;28;20026;-86
2022/07/04 12:17:32;;;;;;;2.85;1.80;;;;;;;;;;4998849;28;20037;-89
2022/07/04 12:19:58;;;;;;;6.63;2.70;;;;;;;;;;5002193;28;20036;-88
2022/07/04 12:22:32;;;;;;;4.55;1.77;;;;;;;;;;4996338;28;20037;-85
2022/07/04 12:25:01;;;;;;;2.83;2.42;;;;;;;;;;5003696;28;20735;-85
2022/07/04 12:27:27;;;;;;;3.65;1.60;;;;;;;;;;5017081;28;20037;-88
2022/07/04 12:29:53;;;;;;;2.10;1.63;;;;;;;;;;5018484;28;20038;-88
2022/07/04 12:32:18;;;;;;;2.13;1.33;;;;;;;;;;5006899;28;20048;-85
2022/07/04 12:34:44;;;;;;;3.17;1.58;;;;;;;;;;5003617;28;20041;-89
2022/07/04 12:37:10;;;;;;;2.60;1.60;;;;;;;;;;5002370;28;20032;-86
2022/07/04 12:39:37;;;;;;;1.85;1.33;;;;;;;;;;5011813;28;20042;-84
2022/07/04 12:42:19;;;;;;;5.32;1.90;;;;;;;;;;5022083;28;20113;-87
2022/07/04 12:44:49;;;;;;;3.28;1.40;;;;;;;;;;5014961;28;20026;-87
2022/07/04 12:47:15;;;;;;;3.25;1.50;;;;;;;;;;5026852;28;20548;-86
2022/07/04 12:49:44;;;;;;;2.72;1.40;;;;;;;;;;5030865;28;20030;-79
2022/07/04 12:52:14;;;;;;;4.22;1.50;;;;;;;;;;5014046;28;20041;-80
2022/07/04 12:54:41;;;;;;;2.45;1.58;;;;;;;;;;5029683;28;20021;-85
2022/07/04 12:57:14;;;;;;;3.05;1.30;;;;;;;;;;5013152;28;20409;-84
2022/07/04 12:59:40;;;;;;;3.65;1.50;;;;;;;;;;5022514;28;20036;-83
2022/07/04 13:02:05;;;;;;;16.48;1.90;;;;;;;;;;4999719;28;20499;-85
2022/07/04 13:04:32;;;;;;;2.20;1.40;;;;;;;;;;5010096;28;20466;-85
2022/07/04 13:06:59;;;;;;;2.20;1.17;;;;;;;;;;5024194;28;20030;-86
2022/07/04 13:09:24;;;;;;;2.33;1.40;;;;;;;;;;5000676;28;20033;-83
2022/07/04 13:14:33;;;;;;;1.23;1.10;;;;;;;;;;5002335;28;20041;-83
2022/07/04 13:16:58;;;;;;;1.65;1.20;;;;;;;;;;5006364;28;20491;-83
2022/07/04 13:19:24;;;;;;;2.00;1.10;;;;;;;;;;5006894;28;20084;-87
2022/07/04 13:21:49;;;;;;;2.35;1.33;;;;;;;;;;5007758;28;20038;-86
2022/07/04 13:24:14;;;;;;;4.13;1.83;;;;;;;;;;5008560;28;20029;-84
2022/07/04 13:26:42;;;;;;;1.52;1.02;;;;;;;;;;5004164;28;20046;-86
2022/07/04 13:29:07;;;;;;;3.70;1.20;;;;;;;;;;5000795;28;20029;-88
2022/07/04 13:31:36;;;;;;;7.75;2.80;;;;;;;;;;5004541;28;20034;-87
2022/07/04 13:34:04;;;;;;;3.15;1.70;;;;;;;;;;5003207;28;20026;-84
2022/07/04 13:36:30;;;;;;;2.17;1.30;;;;;;;;;;5002888;28;20085;-83
2022/07/04 13:38:55;;;;;;;2.28;1.23;;;;;;;;;;5005722;28;20109;-85
2022/07/04 13:41:21;;;;;;;2.13;1.35;;;;;;;;;;5022987;28;20447;-88
2022/07/04 13:43:47;;;;;;;3.28;1.30;;;;;;;;;;5006784;28;20026;-87
2022/07/04 13:46:12;;;;;;;1.65;1.25;;;;;;;;;;5008114;28;20036;-88
2022/07/04 13:48:41;;;;;;;2.90;1.23;;;;;;;;;;5013074;28;20124;-88
2022/07/04 13:51:09;;;;;;;1.70;1.20;;;;;;;;;;5009851;28;20049;-84
2022/07/04 13:53:36;;;;;;;2.83;1.60;;;;;;;;;;5025856;28;20034;-88
2022/07/04 13:56:03;;;;;;;1.90;1.13;;;;;;;;;;5006071;28;20495;-85
2022/07/04 13:58:28;;;;;;;2.85;1.20;;;;;;;;;;5025087;28;20026;-84
2022/07/04 14:00:53;;;;;;;2.63;1.20;;;;;;;;;;5003424;28;20042;-84
2022/07/04 14:03:19;;;;;;;3.17;1.27;;;;;;;;;;5001981;28;20529;-89
2022/07/04 14:05:45;;;;;;;3.40;1.27;;;;;;;;;;4999989;28;20032;-88
2022/07/04 14:08:10;;;;;;;1.65;1.00;;;;;;;;;;5002546;28;20376;-88
2022/07/04 14:10:35;;;;;;;1.98;1.02;;;;;;;;;;5008793;28;20029;-88
2022/07/04 14:13:01;;;;;;;1.77;1.25;;;;;;;;;;5005234;28;20022;-84
2022/07/04 14:15:26;;;;;;;2.40;1.17;;;;;;;;;;5010471;28;20409;-87
2022/07/04 14:17:51;;;;;;;3.35;1.02;;;;;;;;;;5020792;28;20036;-85
2022/07/04 14:20:18;;;;;;;4.13;1.20;;;;;;;;;;5018913;28;20167;-84
2022/07/04 14:22:44;;;;;;;2.83;1.10;;;;;;;;;;5024865;28;20100;-87
2022/07/04 14:25:09;;;;;;;2.55;1.65;;;;;;;;;;5011486;28;20057;-84
2022/07/04 14:27:35;;;;;;;2.25;1.25;;;;;;;;;;5024583;28;20026;-85
2022/07/04 14:30:00;;;;;;;3.35;1.02;;;;;;;;;;5008008;28;20072;-87
2022/07/04 14:32:25;;;;;;;2.83;1.17;;;;;;;;;;5022200;28;20026;-86
2022/07/04 14:34:51;;;;;;;1.88;1.25;;;;;;;;;;5009741;28;20025;-85
2022/07/04 14:37:16;;;;;;;3.53;2.08;;;;;;;;;;5008620;28;20022;-85
2022/07/04 14:39:41;;;;;;;2.65;1.08;;;;;;;;;;5004816;28;20050;-83
2022/07/04 14:42:07;;;;;;;2.55;1.17;;;;;;;;;;5002450;28;20044;-85
2022/07/04 14:44:37;;;;;;;1.10;0.93;;;;;;;;;;5022729;28;20041;-83
2022/07/04 14:47:03;;;;;;;4.82;2.10;;;;;;;;;;5003722;28;20409;-81
2022/07/04 14:49:28;;;;;;;2.80;1.13;;;;;;;;;;5004802;28;20044;-81
2022/07/04 14:51:53;;;;;;;3.43;1.50;;;;;;;;;;5003162;28;20423;-79
2022/07/04 14:54:20;;;;;;;1.83;1.20;;;;;;;;;;5005742;28;20774;-80
2022/07/04 14:56:48;;;;;;;2.35;1.10;;;;;;;;;;5005308;28;20037;-83